Selected Arizona METAR Reports


Metar stations are listed by distance from this station - near to far. The 'official' reporting station for the Greater Phoenix area is KPHX - Phoenix/Sky Harbor.

KDVT - Phoenix/Deer Valley, Arizona, USA
Distance from station: NW 4mi, 7km
Updated: Fri 19 Apr 2019 1653 MST
Clear
Clear
 Wind from varies
Wind: varies 3 mph , 6 km/h
Temperature: 95°F , 35°C
Dew Point: 21°F , -6°C
Humidity: 7%
Barometer: 29.80 inHg , 1009.1 hPa
Clouds: Clear
Visibility: 10 miles , 16 km
2019/04/19 23:53 KDVT 192353Z VRB03KT 10SM CLR 35/M06 A2980 RMK AO2 SLP067 T03501056 10361 20311 56028
KSDL - Scottsdale, Arizona, USA
Distance from station: ESE 6mi, 9km
Updated: Fri 19 Apr 2019 1653 MST
Clear
Clear
 Wind from SSW
Wind: SSW 6 mph , 9 km/h
Temperature: 95°F , 35°C
Dew Point: 16°F , -9°C
Humidity: 5%
Barometer: 29.81 inHg , 1009.5 hPa
Clouds: Clear
Visibility: 10 miles , 16 km
2019/04/19 23:53 KSDL 192353Z 20005KT 10SM CLR 35/M09 A2981 RMK AO2 SLP071 T03501094 10361 20300 56027
 
KPHX - Phoenix/Sky Harbor, Arizona, USA
Distance from station: S 15mi, 24km
Updated: Fri 19 Apr 2019 1651 MST
Partly cloudy
Partly cloudy
 Wind from S
Wind: S 6 mph , 9 km/h
Temperature: 97°F , 36°C
Dew Point: 19°F , -7°C
Humidity: 6%
Barometer: 29.76 inHg , 1007.8 hPa
Clouds: Partly cloudy
Visibility: 10 miles , 16 km
Cloud details: Few Clouds 13000 ft
Partly cloudy 18000 ft
Partly cloudy 27000 ft
2019/04/19 23:51 KPHX 192351Z 17005KT 10SM FEW130 SCT180 SCT270 36/M07 A2976 RMK AO2 SLP060 T03611067 10372 20317 56030
KGEU - Glendale, Arizona, USA
Distance from station: WSW 19mi, 30km
Updated: Fri 19 Apr 2019 1550 MST
NOT Current
Few Clouds
Few Clouds
 Wind from varies
Wind: varies 3 mph , 6 km/h
Temperature: 99°F , 37°C
Dew Point: 16°F , -9°C
Humidity: 5%
Barometer: 29.81 inHg , 1009.5 hPa
Clouds: Few Clouds
Visibility: 10 miles , 16 km
Cloud details: Few Clouds 20000 ft
2019/04/19 22:50 KGEU 192250Z VRB03KT 10SM FEW200 37/M09 A2981
 
KFFZ - Mesa/Falcon Field, Arizona, USA
Distance from station: SE 21mi, 33km
Updated: Fri 19 Apr 2019 1654 MST
Clear
Clear
 Wind from SSE
Wind: SSE 9 mph , 15 km/h
Temperature: 97°F , 36°C
Dew Point: 9°F , -13°C
Humidity: 4%
Barometer: 29.78 inHg , 1008.5 hPa
Clouds: Clear
Visibility: 10 miles , 16 km
2019/04/19 23:54 KFFZ 192354Z AUTO 16008KT 10SM CLR 36/M13 A2978 RMK AO2 SLP062 T03611128 10367 20300 56029
KLUF - Luke AFB/Glendale, Arizona, USA
Distance from station: WSW 23mi, 36km
Updated: Fri 19 Apr 2019 1658 MST
Clear
Clear
 Wind from N
Wind: N 6 mph , 9 km/h
Temperature: 97°F , 36°C
Dew Point: 19°F , -7°C
Humidity: 6%
Barometer: 29.75 inHg , 1007.5 hPa
Clouds: Clear
Visibility: 10 miles , 16 km
2019/04/19 23:58 KLUF 192358Z AUTO 01005KT 10SM CLR 36/M07 A2975 RMK AO2 SLPNO T03591073 10366 20354 57030
 
KGYR - Goodyear Municipal, Arizona, USA
Distance from station: SW 26mi, 42km
Updated: Fri 19 Apr 2019 1647 MST
Partly cloudy
Partly cloudy
 Wind from varies
Wind: varies 5 mph , 7 km/h
Temperature: 99°F , 37°C
Dew Point: 27°F , -3°C
Humidity: 8%
Barometer: 29.76 inHg , 1007.8 hPa
Clouds: Partly cloudy
Visibility: 10 miles , 16 km
Cloud details: Partly cloudy 25000 ft
2019/04/19 23:47 KGYR 192347Z VRB04KT 10SM SCT250 37/M03 A2976
KIWA - Chandler/Mesa, Arizona, USA
Distance from station: SE 32mi, 51km
Updated: Fri 19 Apr 2019 1647 MST
Partly cloudy
Partly cloudy
 Wind from E
Wind: E 5 mph , 7 km/h
Temperature: 97°F , 36°C
Dew Point: 19°F , -7°C
Humidity: 6%
Barometer: 29.80 inHg , 1009.1 hPa
Clouds: Partly cloudy
Visibility: 45 miles , 72 km
Cloud details: Partly cloudy 18000 ft
2019/04/19 23:47 KIWA 192347Z 10004KT 45SM SCT180 36/M07 A2980
 
KBXK - Buckeye, Arizona, USA
Distance from station: WSW 42mi, 68km
Updated: Fri 19 Apr 2019 1715 MST
Clear
Clear
 Wind from calm
Wind: Calm
Temperature: 95°F , 35°C
Dew Point: 18°F , -8°C
Humidity: 6%
Barometer: 29.78 inHg , 1008.5 hPa
Clouds: Clear
Visibility: 10 miles , 16 km
2019/04/20 00:15 KBXK 200015Z AUTO 00000KT 10SM CLR 35/M08 A2978 RMK AO1
KCGZ - Casa Grande, Arizona, USA
Distance from station: SSE 50mi, 81km
Updated: Fri 19 Apr 2019 1656 MST
Clear
Clear
 Wind from W
Wind: W 8 mph , 13 km/h
Temperature: 97°F , 36°C
Dew Point: 28°F , -2°C
Humidity: 9%
Barometer: 29.80 inHg , 1009.1 hPa
Clouds: Clear
Visibility: 10 miles , 16 km
2019/04/19 23:56 KCGZ 192356Z AUTO 27007KT 240V300 10SM CLR 36/M02 A2980 RMK AO2 SLP076 6//// T03611022 10367 20294 56029 PNO $
 
KPAN - Payson, Arizona, USA
Distance from station: NE 57mi, 91km
Updated: Fri 19 Apr 2019 1715 MST

 
2019/04/20 00:15 KPAN 200015Z AUTO RMK AO2 PWINO TSNO
KGBN - Gila Bend (aaf), Arizona, USA
Distance from station: SW 68mi, 109km
Updated: Thu 20 Jul 2017 0757 MST
NOT Current
Partly cloudy
Partly cloudy
 Wind from calm
Wind: Calm
Temperature: 86°F , 30°C
Heat Index: 89°F , 32°C
Dew Point: 68°F , 20°C
Humidity: 55%
Barometer: 29.97 inHg , 1014.9 hPa
Clouds: Partly cloudy
Visibility: 10 miles , 16 km
Cloud details: Few Clouds 10000 ft
Partly cloudy 15000 ft
2017/07/20 14:57 KGBN 201457Z 00000KT 10SM FEW100 SCT150 30/20 A2997 RMK A02 NO SLP
 
KPRC - Prescott, Arizona, USA
Distance from station: NNW 73mi, 118km
Updated: Fri 19 Apr 2019 1653 MST
Clear
Clear
 Wind from SSE
Wind: SSE 8 mph , 13 km/h, Gust: 23 mph , 37 km/h
Temperature: 79°F , 26°C
Dew Point: 12°F , -11°C
Humidity: 8%
Barometer: 30.04 inHg , 1017.3 hPa
Clouds: Clear
Visibility: 10 miles , 16 km
2019/04/19 23:53 KPRC 192353Z 16007G20KT 100V220 10SM CLR 26/M11 A3004 RMK AO2 SLP112 T02611106 10283 20239 56017
KSEZ - Sedona, Arizona, USA
Distance from station: N 84mi, 135km
Updated: Fri 19 Apr 2019 1715 MST
Clear
Clear
 Wind from SSE
Wind: SSE 10 mph , 17 km/h
Temperature: 79°F , 26°C
Dew Point: 18°F , -8°C
Humidity: 10%
Barometer: 30.03 inHg , 1016.9 hPa
Clouds: Clear
Visibility: 10 miles , 16 km
2019/04/20 00:15 KSEZ 200015Z AUTO 16009KT 10SM CLR 26/M08 A3003 RMK AO2
 
KFLG - Flagstaff, Arizona, USA
Distance from station: N 105mi, 168km
Updated: Fri 19 Apr 2019 1657 MST
Clear
Clear
 Wind from WSW
Wind: WSW 13 mph , 20 km/h
Temperature: 70°F , 21°C
Dew Point: 7°F , -14°C
Humidity: 8%
Barometer: 30.17 inHg , 1021.7 hPa
Clouds: Clear
Visibility: 10 miles , 16 km
2019/04/19 23:57 KFLG 192357Z 24011KT 10SM CLR 21/M14 A3017 RMK AO2 SLP158 T02061139 10233 20189 56014
KRYN - Tucson/Ryan Field, Arizona, USA
Distance from station: SSE 114mi, 184km
Updated: Fri 19 Apr 2019 1645 MST
Clear
Clear
 Wind from SW
Wind: SW 13 mph , 20 km/h, Gust: 20 mph , 31 km/h
Temperature: 97°F , 36°C
Dew Point: 14°F , -10°C
Humidity: 5%
Barometer: 29.86 inHg , 1011.2 hPa
Clouds: Clear
Visibility: 10 miles , 16 km
2019/04/19 23:45 KRYN 192345Z 22011G17KT 10SM CLR 36/M10 A2986
 
KCMR - Williams Clark, Arizona, USA
Distance from station: N 115mi, 185km
Updated: Fri 19 Apr 2019 1715 MST
Clear
Clear
 Wind from ESE
Wind: ESE 7 mph , 11 km/h, Gust: 14 mph , 22 km/h
Temperature: 72°F , 22°C
Dew Point: 9°F , -13°C
Humidity: 8%
Barometer: 30.14 inHg , 1020.7 hPa
Clouds: Clear
Visibility: 10 miles , 16 km
2019/04/20 00:15 KCMR 200015Z AUTO 12006G12KT 10SM CLR 22/M13 A3014 RMK AO2
KINW - Winslow, Arizona, USA
Distance from station: NE 121mi, 194km
Updated: Fri 19 Apr 2019 1656 MST
Clear
Clear
 Wind from ENE
Wind: ENE 9 mph , 15 km/h, Gust: 17 mph , 28 km/h
Temperature: 82°F , 28°C
Dew Point: 16°F , -9°C
Humidity: 8%
Barometer: 30.02 inHg , 1016.6 hPa
Clouds: Clear
Visibility: 10 miles , 16 km
2019/04/19 23:56 KINW 192356Z AUTO 07008G15KT 10SM CLR 28/M09 A3002 RMK AO2 SLP115 T02831094 10289 20211 56030
 
KTUS - Tucson, Arizona, USA
Distance from station: SSE 121mi, 195km
Updated: Fri 19 Apr 2019 1653 MST
Clear
Clear
 Wind from varies
Wind: varies 5 mph , 7 km/h
Temperature: 97°F , 36°C
Dew Point: 3°F , -16°C
Humidity: 3%
Barometer: 29.88 inHg , 1011.9 hPa
Clouds: Clear
Visibility: 10 miles , 16 km
2019/04/19 23:53 KTUS 192353Z VRB04KT 10SM CLR 36/M16 A2988 RMK AO2 SLP073 T03561156 10361 20322 56023
KDMA - Davis AFB/Tucson, Arizona, USA
Distance from station: SE 122mi, 196km
Updated: Fri 19 Apr 2019 1658 MST
Clear
Clear
 Wind from WNW
Wind: WNW 8 mph , 13 km/h
Temperature: 95°F , 35°C
Dew Point: 9°F , -13°C
Humidity: 4%
Barometer: 29.86 inHg , 1011.2 hPa
Clouds: Clear
Visibility: 10 miles , 16 km
2019/04/19 23:58 KDMA 192358Z AUTO 29007KT 10SM CLR 35/M13 A2986 RMK AO2 SLPNO T03521129 10357 20342 57022 $
 
KSOW - Show Low Municipal, Arizona, USA
Distance from station: ENE 123mi, 198km
Updated: Fri 19 Apr 2019 1715 MST
Clear
Clear
 Wind from SSW
Wind: SSW 14 mph , 22 km/h
Temperature: 75°F , 24°C
Dew Point: 12°F , -11°C
Humidity: 9%
Barometer: 30.14 inHg , 1020.7 hPa
Clouds: Clear
Visibility: 10 miles , 16 km
2019/04/20 00:15 KSOW 200015Z AUTO 20012KT 10SM CLR 24/M11 A3014 RMK A01
KSAD - Safford, Arizona, USA
Distance from station: ESE 148mi, 238km
Updated: Fri 19 Apr 2019 1651 MST
Clear
Clear
 Wind from varies
Wind: varies 3 mph , 6 km/h
Temperature: 91°F , 33°C
Dew Point: 5°F , -15°C
Humidity: 4%
Barometer: 29.93 inHg , 1013.5 hPa
Clouds: Clear
Visibility: 10 miles , 16 km
2019/04/19 23:51 KSAD 192351Z AUTO VRB03KT 10SM CLR 33/M15 A2993 RMK AO2 SLP094 T03281150 10333 20278 56024